sensor_id;sensor_type;location;lat;lon;timestamp;pressure;altitude;pressure_sealevel;temperature;humidity
25526;BME280;13424;48.424;11.258;2023-03-12T00:01:38;95145.25;;;2.20;61.34
25526;BME280;13424;48.424;11.258;2023-03-12T00:04:04;95155.38;;;2.17;61.42
25526;BME280;13424;48.424;11.258;2023-03-12T00:06:31;95154.53;;;2.10;61.48
25526;BME280;13424;48.424;11.258;2023-03-12T00:08:57;95149.59;;;1.87;61.99
25526;BME280;13424;48.424;11.258;2023-03-12T00:11:27;95158.56;;;1.64;63.02
25526;BME280;13424;48.424;11.258;2023-03-12T00:13:55;95152.84;;;1.95;61.62
25526;BME280;13424;48.424;11.258;2023-03-12T00:16:21;95152.69;;;2.04;61.77
25526;BME280;13424;48.424;11.258;2023-03-12T00:18:49;95157.75;;;1.99;61.89
25526;BME280;13424;48.424;11.258;2023-03-12T00:21:27;95165.84;;;2.10;62.04
25526;BME280;13424;48.424;11.258;2023-03-12T00:23:53;95164.84;;;2.11;62.03
25526;BME280;13424;48.424;11.258;2023-03-12T00:26:20;95167.91;;;2.15;61.39
25526;BME280;13424;48.424;11.258;2023-03-12T00:28:47;95171.50;;;2.01;61.78
25526;BME280;13424;48.424;11.258;2023-03-12T00:31:24;95168.25;;;1.99;61.77
25526;BME280;13424;48.424;11.258;2023-03-12T00:33:55;95167.78;;;1.88;61.99
25526;BME280;13424;48.424;11.258;2023-03-12T00:36:23;95169.78;;;1.80;62.25
25526;BME280;13424;48.424;11.258;2023-03-12T00:38:52;95167.81;;;1.95;61.70
25526;BME280;13424;48.424;11.258;2023-03-12T00:41:18;95167.84;;;2.02;61.79
25526;BME280;13424;48.424;11.258;2023-03-12T00:43:48;95169.47;;;2.03;62.13
25526;BME280;13424;48.424;11.258;2023-03-12T00:46:15;95179.13;;;1.82;62.06
25526;BME280;13424;48.424;11.258;2023-03-12T00:48:42;95183.81;;;1.52;62.78
25526;BME280;13424;48.424;11.258;2023-03-12T00:51:08;95173.38;;;1.72;62.68
25526;BME280;13424;48.424;11.258;2023-03-12T00:53:34;95168.22;;;1.92;62.16
25526;BME280;13424;48.424;11.258;2023-03-12T00:56:01;95165.00;;;1.90;61.90
25526;BME280;13424;48.424;11.258;2023-03-12T00:58:28;95167.13;;;1.73;62.16
25526;BME280;13424;48.424;11.258;2023-03-12T01:00:53;95169.75;;;1.73;62.52
25526;BME280;13424;48.424;11.258;2023-03-12T01:03:19;95172.22;;;1.81;61.62
25526;BME280;13424;48.424;11.258;2023-03-12T01:05:45;95173.78;;;1.69;62.89
25526;BME280;13424;48.424;11.258;2023-03-12T01:08:11;95180.41;;;1.65;62.33
25526;BME280;13424;48.424;11.258;2023-03-12T01:10:41;95185.09;;;1.70;62.12
25526;BME280;13424;48.424;11.258;2023-03-12T01:13:08;95176.81;;;1.66;63.01
25526;BME280;13424;48.424;11.258;2023-03-12T01:15:35;95173.00;;;1.75;62.87
25526;BME280;13424;48.424;11.258;2023-03-12T01:18:00;95172.38;;;1.66;62.86
25526;BME280;13424;48.424;11.258;2023-03-12T01:20:26;95171.00;;;1.77;62.46
25526;BME280;13424;48.424;11.258;2023-03-12T01:22:52;95168.88;;;1.59;63.08
25526;BME280;13424;48.424;11.258;2023-03-12T01:25:18;95159.16;;;1.25;63.34
25526;BME280;13424;48.424;11.258;2023-03-12T01:27:44;95160.09;;;1.11;64.02
25526;BME280;13424;48.424;11.258;2023-03-12T01:30:10;95158.09;;;1.13;64.21
25526;BME280;13424;48.424;11.258;2023-03-12T01:32:36;95157.88;;;1.43;63.75
25526;BME280;13424;48.424;11.258;2023-03-12T01:35:02;95157.94;;;1.21;64.16
25526;BME280;13424;48.424;11.258;2023-03-12T01:37:28;95160.94;;;1.18;63.89
25526;BME280;13424;48.424;11.258;2023-03-12T01:39:54;95162.56;;;1.19;64.00
25526;BME280;13424;48.424;11.258;2023-03-12T01:42:20;95153.78;;;1.40;63.74
25526;BME280;13424;48.424;11.258;2023-03-12T01:44:56;95161.97;;;1.52;63.84
25526;BME280;13424;48.424;11.258;2023-03-12T01:47:23;95159.09;;;1.47;64.04
25526;BME280;13424;48.424;11.258;2023-03-12T01:49:51;95161.41;;;1.63;63.82
25526;BME280;13424;48.424;11.258;2023-03-12T01:52:35;95161.66;;;1.68;63.04
25526;BME280;13424;48.424;11.258;2023-03-12T01:55:10;95158.63;;;1.71;62.83
25526;BME280;13424;48.424;11.258;2023-03-12T01:57:48;95163.50;;;1.81;62.85
25526;BME280;13424;48.424;11.258;2023-03-12T02:00:20;95167.47;;;1.63;63.00
25526;BME280;13424;48.424;11.258;2023-03-12T02:02:48;95172.84;;;1.49;63.42
25526;BME280;13424;48.424;11.258;2023-03-12T02:09:05;95178.50;;;1.46;63.73
25526;BME280;13424;48.424;11.258;2023-03-12T02:11:32;95167.47;;;1.29;63.82
25526;BME280;13424;48.424;11.258;2023-03-12T02:14:01;95170.31;;;1.27;64.24
25526;BME280;13424;48.424;11.258;2023-03-12T02:16:27;95169.75;;;1.38;63.87
25526;BME280;13424;48.424;11.258;2023-03-12T02:18:54;95170.06;;;1.50;62.94
25526;BME280;13424;48.424;11.258;2023-03-12T02:21:29;95165.81;;;1.56;63.18
25526;BME280;13424;48.424;11.258;2023-03-12T02:27:02;95156.03;;;1.78;63.32
25526;BME280;13424;48.424;11.258;2023-03-12T02:29:29;95159.63;;;1.70;62.64
25526;BME280;13424;48.424;11.258;2023-03-12T02:31:56;95151.28;;;2.08;61.65
25526;BME280;13424;48.424;11.258;2023-03-12T02:34:24;95157.34;;;2.02;61.91
25526;BME280;13424;48.424;11.258;2023-03-12T02:36:49;95168.09;;;2.07;61.65
25526;BME280;13424;48.424;11.258;2023-03-12T02:39:15;95169.09;;;2.06;61.52
25526;BME280;13424;48.424;11.258;2023-03-12T02:41:51;95173.53;;;2.12;61.76
25526;BME280;13424;48.424;11.258;2023-03-12T02:44:24;95174.97;;;2.08;61.90
25526;BME280;13424;48.424;11.258;2023-03-12T02:46:54;95174.84;;;1.75;62.21
25526;BME280;13424;48.424;11.258;2023-03-12T02:49:26;95185.34;;;1.75;62.85
25526;BME280;13424;48.424;11.258;2023-03-12T02:51:53;95178.88;;;1.77;62.74
25526;BME280;13424;48.424;11.258;2023-03-12T02:54:20;95179.88;;;1.42;63.28
25526;BME280;13424;48.424;11.258;2023-03-12T02:56:47;95179.00;;;1.62;63.82
25526;BME280;13424;48.424;11.258;2023-03-12T02:59:14;95189.28;;;1.92;63.59
25526;BME280;13424;48.424;11.258;2023-03-12T03:01:42;95194.59;;;2.12;62.88
25526;BME280;13424;48.424;11.258;2023-03-12T03:04:10;95189.72;;;2.02;62.60
25526;BME280;13424;48.424;11.258;2023-03-12T03:06:39;95188.84;;;1.88;63.27
25526;BME280;13424;48.424;11.258;2023-03-12T03:09:06;95191.31;;;2.03;62.71
25526;BME280;13424;48.424;11.258;2023-03-12T03:11:32;95203.41;;;1.84;63.45
25526;BME280;13424;48.424;11.258;2023-03-12T03:14:00;95202.66;;;2.04;64.19
25526;BME280;13424;48.424;11.258;2023-03-12T03:16:29;95201.47;;;2.13;63.35
25526;BME280;13424;48.424;11.258;2023-03-12T03:18:55;95197.44;;;2.10;63.68
25526;BME280;13424;48.424;11.258;2023-03-12T03:21:20;95204.78;;;2.21;63.57
25526;BME280;13424;48.424;11.258;2023-03-12T03:23:48;95206.66;;;2.41;62.85
25526;BME280;13424;48.424;11.258;2023-03-12T03:26:19;95197.53;;;2.43;62.81
25526;BME280;13424;48.424;11.258;2023-03-12T03:28:45;95198.31;;;2.24;62.40
25526;BME280;13424;48.424;11.258;2023-03-12T03:31:12;95198.69;;;2.21;63.01
25526;BME280;13424;48.424;11.258;2023-03-12T03:33:41;95191.81;;;2.27;63.28
25526;BME280;13424;48.424;11.258;2023-03-12T03:36:09;95202.66;;;2.04;63.66
25526;BME280;13424;48.424;11.258;2023-03-12T03:38:42;95198.13;;;2.32;63.78
25526;BME280;13424;48.424;11.258;2023-03-12T03:41:11;95195.13;;;2.48;63.88
25526;BME280;13424;48.424;11.258;2023-03-12T03:43:41;95201.22;;;2.56;63.20
25526;BME280;13424;48.424;11.258;2023-03-12T03:46:10;95207.31;;;2.63;63.30
25526;BME280;13424;48.424;11.258;2023-03-12T03:48:40;95209.53;;;2.66;63.24
25526;BME280;13424;48.424;11.258;2023-03-12T03:54:51;95215.66;;;2.99;62.61
25526;BME280;13424;48.424;11.258;2023-03-12T03:57:18;95207.75;;;2.86;63.33
25526;BME280;13424;48.424;11.258;2023-03-12T03:59:44;95205.31;;;2.91;63.04
25526;BME280;13424;48.424;11.258;2023-03-12T04:02:10;95212.84;;;2.94;62.93
25526;BME280;13424;48.424;11.258;2023-03-12T04:04:37;95206.13;;;2.92;62.80
25526;BME280;13424;48.424;11.258;2023-03-12T04:07:03;95212.63;;;2.89;63.61
25526;BME280;13424;48.424;11.258;2023-03-12T04:09:29;95215.66;;;2.99;62.65
25526;BME280;13424;48.424;11.258;2023-03-12T04:11:55;95209.38;;;2.87;63.67
25526;BME280;13424;48.424;11.258;2023-03-12T04:14:21;95217.06;;;2.75;64.12
25526;BME280;13424;48.424;11.258;2023-03-12T04:16:47;95222.34;;;2.82;64.64
25526;BME280;13424;48.424;11.258;2023-03-12T04:19:13;95222.75;;;2.99;64.12
25526;BME280;13424;48.424;11.258;2023-03-12T04:21:39;95223.16;;;2.96;63.55
25526;BME280;13424;48.424;11.258;2023-03-12T04:24:06;95221.13;;;2.91;63.88
25526;BME280;13424;48.424;11.258;2023-03-12T04:26:34;95216.28;;;3.01;64.21
25526;BME280;13424;48.424;11.258;2023-03-12T04:29:00;95213.88;;;3.26;64.37
25526;BME280;13424;48.424;11.258;2023-03-12T04:31:26;95205.75;;;3.21;63.80
25526;BME280;13424;48.424;11.258;2023-03-12T04:33:52;95208.59;;;3.33;64.00
25526;BME280;13424;48.424;11.258;2023-03-12T04:40:11;95213.25;;;3.44;63.78
25526;BME280;13424;48.424;11.258;2023-03-12T04:42:38;95210.59;;;3.44;63.85
25526;BME280;13424;48.424;11.258;2023-03-12T04:45:05;95209.38;;;3.53;64.43
25526;BME280;13424;48.424;11.258;2023-03-12T04:47:32;95203.28;;;3.59;63.66
25526;BME280;13424;48.424;11.258;2023-03-12T04:49:59;95204.50;;;3.63;64.05
25526;BME280;13424;48.424;11.258;2023-03-12T04:52:25;95194.97;;;3.56;64.75
25526;BME280;13424;48.424;11.258;2023-03-12T04:54:52;95199.19;;;3.77;64.68
25526;BME280;13424;48.424;11.258;2023-03-12T04:57:19;95190.66;;;3.81;64.47
25526;BME280;13424;48.424;11.258;2023-03-12T04:59:45;95195.94;;;3.75;64.90
25526;BME280;13424;48.424;11.258;2023-03-12T05:02:11;95200.78;;;3.84;65.04
25526;BME280;13424;48.424;11.258;2023-03-12T05:04:36;95204.47;;;3.77;65.35
25526;BME280;13424;48.424;11.258;2023-03-12T05:07:02;95200.41;;;3.87;65.39
25526;BME280;13424;48.424;11.258;2023-03-12T05:09:31;95202.47;;;3.66;66.77
25526;BME280;13424;48.424;11.258;2023-03-12T05:11:57;95205.50;;;3.62;66.87
25526;BME280;13424;48.424;11.258;2023-03-12T05:14:23;95204.50;;;3.63;66.99
25526;BME280;13424;48.424;11.258;2023-03-12T05:16:49;95210.97;;;3.81;66.32
25526;BME280;13424;48.424;11.258;2023-03-12T05:19:15;95199.97;;;3.84;66.55
25526;BME280;13424;48.424;11.258;2023-03-12T05:21:42;95203.66;;;3.76;66.44
25526;BME280;13424;48.424;11.258;2023-03-12T05:24:09;95209.06;;;4.01;65.96
25526;BME280;13424;48.424;11.258;2023-03-12T05:26:36;95204.00;;;3.93;66.45
25526;BME280;13424;48.424;11.258;2023-03-12T05:29:15;95215.34;;;4.00;66.23
25526;BME280;13424;48.424;11.258;2023-03-12T05:31:42;95215.44;;;3.60;67.48
25526;BME280;13424;48.424;11.258;2023-03-12T05:34:11;95215.00;;;3.90;66.81
25526;BME280;13424;48.424;11.258;2023-03-12T05:36:39;95211.72;;;3.95;66.67
25526;BME280;13424;48.424;11.258;2023-03-12T05:39:08;95212.56;;;3.95;66.90
25526;BME280;13424;48.424;11.258;2023-03-12T05:41:35;95214.84;;;3.72;67.78
25526;BME280;13424;48.424;11.258;2023-03-12T05:44:11;95210.09;;;3.87;67.11
25526;BME280;13424;48.424;11.258;2023-03-12T05:46:38;95204.81;;;3.93;67.39
25526;BME280;13424;48.424;11.258;2023-03-12T05:49:04;95203.44;;;3.78;68.09
25526;BME280;13424;48.424;11.258;2023-03-12T05:51:31;95211.97;;;3.80;68.21
25526;BME280;13424;48.424;11.258;2023-03-12T05:53:58;95210.31;;;3.92;67.96
25526;BME280;13424;48.424;11.258;2023-03-12T05:56:24;95209.41;;;3.40;69.25
25526;BME280;13424;48.424;11.258;2023-03-12T05:58:50;95209.38;;;3.53;68.72
25526;BME280;13424;48.424;11.258;2023-03-12T06:01:22;95215.44;;;3.74;67.93
25526;BME280;13424;48.424;11.258;2023-03-12T06:03:48;95207.53;;;3.54;68.92
25526;BME280;13424;48.424;11.258;2023-03-12T06:06:15;95202.84;;;3.76;68.53
25526;BME280;13424;48.424;11.258;2023-03-12T06:08:41;95202.00;;;3.95;68.39
25526;BME280;13424;48.424;11.258;2023-03-12T06:11:09;95201.09;;;4.14;68.28
25526;BME280;13424;48.424;11.258;2023-03-12T06:13:36;95200.75;;;4.04;68.65
25526;BME280;13424;48.424;11.258;2023-03-12T06:16:11;95210.06;;;4.13;68.71
25526;BME280;13424;48.424;11.258;2023-03-12T06:18:40;95202.28;;;4.25;68.97
25526;BME280;13424;48.424;11.258;2023-03-12T06:21:12;95206.50;;;4.33;68.45
25526;BME280;13424;48.424;11.258;2023-03-12T06:23:39;95219.63;;;4.53;68.62
25526;BME280;13424;48.424;11.258;2023-03-12T06:26:06;95216.03;;;4.34;68.95
25526;BME280;13424;48.424;11.258;2023-03-12T06:28:33;95219.22;;;4.49;68.72
25526;BME280;13424;48.424;11.258;2023-03-12T06:30:59;95225.75;;;4.46;68.84
25526;BME280;13424;48.424;11.258;2023-03-12T06:33:24;95223.78;;;4.73;68.32
25526;BME280;13424;48.424;11.258;2023-03-12T06:35:58;95219.66;;;4.84;68.47
25526;BME280;13424;48.424;11.258;2023-03-12T06:38:25;95234.47;;;4.92;68.45
25526;BME280;13424;48.424;11.258;2023-03-12T06:41:03;95233.09;;;5.14;68.00
25526;BME280;13424;48.424;11.258;2023-03-12T06:43:31;95238.03;;;5.29;68.13
25526;BME280;13424;48.424;11.258;2023-03-12T06:46:01;95240.59;;;5.17;68.01
25526;BME280;13424;48.424;11.258;2023-03-12T06:48:29;95241.53;;;5.29;68.54
25526;BME280;13424;48.424;11.258;2023-03-12T06:50:55;95241.81;;;5.46;68.17
25526;BME280;13424;48.424;11.258;2023-03-12T06:53:21;95247.63;;;5.30;68.83
25526;BME280;13424;48.424;11.258;2023-03-12T06:55:49;95246.69;;;5.43;68.88
25526;BME280;13424;48.424;11.258;2023-03-12T06:58:15;95241.41;;;5.43;68.97
25526;BME280;13424;48.424;11.258;2023-03-12T07:00:44;95237.41;;;5.33;68.91
25526;BME280;13424;48.424;11.258;2023-03-12T07:03:10;95237.28;;;5.53;69.24
25526;BME280;13424;48.424;11.258;2023-03-12T07:05:35;95231.75;;;5.55;69.22
25526;BME280;13424;48.424;11.258;2023-03-12T07:08:01;95227.91;;;5.51;69.92
25526;BME280;13424;48.424;11.258;2023-03-12T07:10:27;95223.91;;;5.42;70.42
25526;BME280;13424;48.424;11.258;2023-03-12T07:12:55;95222.78;;;5.56;69.90
25526;BME280;13424;48.424;11.258;2023-03-12T07:15:21;95226.66;;;5.78;69.52
25526;BME280;13424;48.424;11.258;2023-03-12T07:17:47;95230.75;;;5.74;69.20
25526;BME280;13424;48.424;11.258;2023-03-12T07:20:13;95233.88;;;5.89;69.05
25526;BME280;13424;48.424;11.258;2023-03-12T07:22:48;95226.50;;;5.73;69.80
25526;BME280;13424;48.424;11.258;2023-03-12T07:25:14;95237.25;;;5.78;69.60
25526;BME280;13424;48.424;11.258;2023-03-12T07:27:40;95232.81;;;5.97;69.61
25526;BME280;13424;48.424;11.258;2023-03-12T07:30:07;95236.09;;;6.48;68.32
25526;BME280;13424;48.424;11.258;2023-03-12T07:32:33;95229.06;;;6.41;68.73
25526;BME280;13424;48.424;11.258;2023-03-12T07:35:02;95233.91;;;6.44;68.50
25526;BME280;13424;48.424;11.258;2023-03-12T07:37:28;95228.88;;;6.55;68.71
25526;BME280;13424;48.424;11.258;2023-03-12T07:39:54;95224.63;;;6.54;69.26
25526;BME280;13424;48.424;11.258;2023-03-12T07:42:21;95226.03;;;6.86;67.96
25526;BME280;13424;48.424;11.258;2023-03-12T07:44:47;95233.03;;;6.14;70.83
25526;BME280;13424;48.424;11.258;2023-03-12T07:47:13;95237.84;;;6.72;68.63
25526;BME280;13424;48.424;11.258;2023-03-12T07:49:39;95246.50;;;6.79;67.98
25526;BME280;13424;48.424;11.258;2023-03-12T07:52:07;95245.53;;;6.92;68.53
25526;BME280;13424;48.424;11.258;2023-03-12T07:54:38;95240.28;;;7.04;67.81
25526;BME280;13424;48.424;11.258;2023-03-12T07:57:04;95245.13;;;7.07;67.59
25526;BME280;13424;48.424;11.258;2023-03-12T07:59:30;95242.50;;;7.18;67.86
25526;BME280;13424;48.424;11.258;2023-03-12T08:05:28;95227.91;;;7.27;67.84
25526;BME280;13424;48.424;11.258;2023-03-12T08:07:53;95234.41;;;7.78;66.88
25526;BME280;13424;48.424;11.258;2023-03-12T08:10:20;95234.44;;;7.90;67.18
25526;BME280;13424;48.424;11.258;2023-03-12T08:12:46;95227.00;;;7.80;66.67
25526;BME280;13424;48.424;11.258;2023-03-12T08:15:12;95231.88;;;7.95;67.06
25526;BME280;13424;48.424;11.258;2023-03-12T08:17:39;95234.97;;;8.16;65.75
25526;BME280;13424;48.424;11.258;2023-03-12T08:20:06;95232.41;;;8.21;66.31
25526;BME280;13424;48.424;11.258;2023-03-12T08:22:35;95236.00;;;8.26;66.52
25526;BME280;13424;48.424;11.258;2023-03-12T08:25:08;95236.78;;;8.50;66.64
25526;BME280;13424;48.424;11.258;2023-03-12T08:27:34;95250.13;;;8.38;66.31
25526;BME280;13424;48.424;11.258;2023-03-12T08:30:00;95246.94;;;9.22;63.28
25526;BME280;13424;48.424;11.258;2023-03-12T08:32:26;95248.50;;;8.02;67.06
25526;BME280;13424;48.424;11.258;2023-03-12T08:34:52;95250.00;;;8.10;67.39
25526;BME280;13424;48.424;11.258;2023-03-12T08:37:17;95262.38;;;8.80;65.10
25526;BME280;13424;48.424;11.258;2023-03-12T08:39:43;95263.06;;;8.75;64.88
25526;BME280;13424;48.424;11.258;2023-03-12T08:42:09;95259.84;;;8.73;65.52
25526;BME280;13424;48.424;11.258;2023-03-12T08:44:53;95265.91;;;8.97;65.09
25526;BME280;13424;48.424;11.258;2023-03-12T08:47:19;95266.41;;;8.82;65.59
25526;BME280;13424;48.424;11.258;2023-03-12T08:49:48;95264.00;;;8.81;65.14
25526;BME280;13424;48.424;11.258;2023-03-12T08:52:14;95272.41;;;8.02;66.67
25526;BME280;13424;48.424;11.258;2023-03-12T08:54:40;95274.00;;;8.50;66.01
25526;BME280;13424;48.424;11.258;2023-03-12T08:57:06;95275.53;;;8.46;66.49
25526;BME280;13424;48.424;11.258;2023-03-12T08:59:31;95270.78;;;8.48;67.07
25526;BME280;13424;48.424;11.258;2023-03-12T09:01:57;95269.72;;;8.49;66.66
25526;BME280;13424;48.424;11.258;2023-03-12T09:04:23;95270.56;;;8.15;67.74
25526;BME280;13424;48.424;11.258;2023-03-12T09:06:49;95268.56;;;8.57;67.71
25526;BME280;13424;48.424;11.258;2023-03-12T09:09:14;95271.09;;;8.92;66.55
25526;BME280;13424;48.424;11.258;2023-03-12T09:11:40;95265.94;;;8.22;68.10
25526;BME280;13424;48.424;11.258;2023-03-12T09:14:07;95268.94;;;8.37;68.76
25526;BME280;13424;48.424;11.258;2023-03-12T09:16:33;95263.47;;;8.55;68.18
25526;BME280;13424;48.424;11.258;2023-03-12T09:18:59;95272.59;;;8.71;68.87
25526;BME280;13424;48.424;11.258;2023-03-12T09:21:25;95273.38;;;9.00;68.33
25526;BME280;13424;48.424;11.258;2023-03-12T09:23:50;95266.91;;;9.53;67.26
25526;BME280;13424;48.424;11.258;2023-03-12T09:26:16;95271.22;;;9.26;67.60
25526;BME280;13424;48.424;11.258;2023-03-12T09:28:42;95272.50;;;9.40;68.56
25526;BME280;13424;48.424;11.258;2023-03-12T09:31:09;95276.84;;;9.74;68.19
25526;BME280;13424;48.424;11.258;2023-03-12T09:33:35;95267.53;;;9.43;68.61
25526;BME280;13424;48.424;11.258;2023-03-12T09:36:01;95266.59;;;9.21;69.46
25526;BME280;13424;48.424;11.258;2023-03-12T09:38:27;95260.47;;;8.52;71.44
25526;BME280;13424;48.424;11.258;2023-03-12T09:40:56;95256.19;;;8.62;71.78
25526;BME280;13424;48.424;11.258;2023-03-12T09:43:37;95261.09;;;9.11;71.11
25526;BME280;13424;48.424;11.258;2023-03-12T09:46:11;95267.06;;;9.01;72.35
25526;BME280;13424;48.424;11.258;2023-03-12T09:48:39;95262.81;;;8.77;73.21
25526;BME280;13424;48.424;11.258;2023-03-12T09:51:37;95261.53;;;8.91;72.35
25526;BME280;13424;48.424;11.258;2023-03-12T09:54:06;95265.81;;;8.40;74.28
25526;BME280;13424;48.424;11.258;2023-03-12T09:56:36;95265.53;;;8.65;75.49
25526;BME280;13424;48.424;11.258;2023-03-12T09:59:02;95267.50;;;8.70;74.18
25526;BME280;13424;48.424;11.258;2023-03-12T10:01:43;95270.47;;;9.13;73.13
25526;BME280;13424;48.424;11.258;2023-03-12T10:15:32;95266.34;;;9.51;74.18
25526;BME280;13424;48.424;11.258;2023-03-12T10:18:07;95260.75;;;9.36;74.35
25526;BME280;13424;48.424;11.258;2023-03-12T10:20:57;95261.13;;;9.56;73.33
25526;BME280;13424;48.424;11.258;2023-03-12T10:23:38;95261.81;;;8.78;74.80
25526;BME280;13424;48.424;11.258;2023-03-12T10:26:23;95268.97;;;8.77;74.56
25526;BME280;13424;48.424;11.258;2023-03-12T10:28:59;95268.22;;;9.22;73.69
25526;BME280;13424;48.424;11.258;2023-03-12T10:32:03;95271.88;;;9.33;73.94
25526;BME280;13424;48.424;11.258;2023-03-12T10:37:13;95274.38;;;8.94;75.25
25526;BME280;13424;48.424;11.258;2023-03-12T10:39:41;95279.63;;;8.65;76.63
25526;BME280;13424;48.424;11.258;2023-03-12T10:42:20;95267.59;;;9.32;74.54
25526;BME280;13424;48.424;11.258;2023-03-12T10:44:50;95274.00;;;8.90;75.52
25526;BME280;13424;48.424;11.258;2023-03-12T10:47:39;95263.63;;;8.89;76.09
25526;BME280;13424;48.424;11.258;2023-03-12T10:52:45;95265.56;;;8.18;78.24
25526;BME280;13424;48.424;11.258;2023-03-12T10:57:43;95269.50;;;8.51;78.28
25526;BME280;13424;48.424;11.258;2023-03-12T11:00:31;95263.56;;;9.29;75.82
25526;BME280;13424;48.424;11.258;2023-03-12T11:03:16;95273.28;;;9.23;75.18
25526;BME280;13424;48.424;11.258;2023-03-12T11:05:54;95268.34;;;9.44;74.36
25526;BME280;13424;48.424;11.258;2023-03-12T11:08:33;95269.47;;;9.03;75.63
25526;BME280;13424;48.424;11.258;2023-03-12T11:11:02;95277.09;;;9.28;75.48
25526;BME280;13424;48.424;11.258;2023-03-12T11:13:46;95283.44;;;9.55;74.56
25526;BME280;13424;48.424;11.258;2023-03-12T11:16:29;95273.69;;;8.87;78.50
25526;BME280;13424;48.424;11.258;2023-03-12T11:18:58;95278.38;;;9.70;75.31
25526;BME280;13424;48.424;11.258;2023-03-12T11:21:27;95269.00;;;9.68;75.56
25526;BME280;13424;48.424;11.258;2023-03-12T11:26:36;95282.88;;;9.53;76.07
25526;BME280;13424;48.424;11.258;2023-03-12T11:29:08;95273.09;;;9.42;76.76
25526;BME280;13424;48.424;11.258;2023-03-12T11:31:49;95278.38;;;10.04;75.18
25526;BME280;13424;48.424;11.258;2023-03-12T11:34:24;95277.31;;;9.09;77.69
25526;BME280;13424;48.424;11.258;2023-03-12T11:39:50;95293.88;;;10.24;74.64
25526;BME280;13424;48.424;11.258;2023-03-12T11:45:33;95280.00;;;8.98;80.48
25526;BME280;13424;48.424;11.258;2023-03-12T11:51:09;95279.41;;;10.20;76.10
25526;BME280;13424;48.424;11.258;2023-03-12T11:54:18;95279.50;;;10.25;75.29
25526;BME280;13424;48.424;11.258;2023-03-12T11:56:54;95273.28;;;10.36;74.54
25526;BME280;13424;48.424;11.258;2023-03-12T12:06:45;95258.13;;;10.42;76.82
25526;BME280;13424;48.424;11.258;2023-03-12T12:21:58;95250.84;;;11.52;73.91
25526;BME280;13424;48.424;11.258;2023-03-12T12:28:31;95249.56;;;11.86;71.89
25526;BME280;13424;48.424;11.258;2023-03-12T12:31:11;95250.44;;;11.97;71.65
25526;BME280;13424;48.424;11.258;2023-03-12T12:34:10;95251.06;;;11.77;72.96
25526;BME280;13424;48.424;11.258;2023-03-12T12:36:38;95238.63;;;11.88;71.46
25526;BME280;13424;48.424;11.258;2023-03-12T12:39:26;95248.38;;;10.91;75.76
25526;BME280;13424;48.424;11.258;2023-03-12T12:41:56;95241.91;;;11.68;72.75
25526;BME280;13424;48.424;11.258;2023-03-12T12:44:37;95245.97;;;10.68;76.46
25526;BME280;13424;48.424;11.258;2023-03-12T12:47:09;95246.44;;;10.86;75.60
25526;BME280;13424;48.424;11.258;2023-03-12T12:49:43;95239.34;;;11.51;74.21
25526;BME280;13424;48.424;11.258;2023-03-12T12:52:17;95238.25;;;10.93;75.95
25526;BME280;13424;48.424;11.258;2023-03-12T12:55:13;95232.81;;;11.69;73.50
25526;BME280;13424;48.424;11.258;2023-03-12T12:57:51;95242.59;;;11.26;74.95
25526;BME280;13424;48.424;11.258;2023-03-12T13:00:22;95240.47;;;11.01;76.08
25526;BME280;13424;48.424;11.258;2023-03-12T13:02:50;95238.91;;;11.32;75.61
25526;BME280;13424;48.424;11.258;2023-03-12T13:08:03;95243.28;;;12.02;73.55
25526;BME280;13424;48.424;11.258;2023-03-12T13:12:59;95241.34;;;11.66;75.60
25526;BME280;13424;48.424;11.258;2023-03-12T13:23:42;95232.16;;;12.21;74.84
25526;BME280;13424;48.424;11.258;2023-03-12T13:37:01;95245.72;;;12.51;75.55
25526;BME280;13424;48.424;11.258;2023-03-12T13:39:34;95255.06;;;12.07;77.26
25526;BME280;13424;48.424;11.258;2023-03-12T13:44:47;95243.94;;;12.72;75.40
25526;BME280;13424;48.424;11.258;2023-03-12T13:47:30;95242.38;;;12.81;75.07
25526;BME280;13424;48.424;11.258;2023-03-12T13:50:04;95234.41;;;13.07;75.43
25526;BME280;13424;48.424;11.258;2023-03-12T13:55:21;95238.28;;;13.36;73.57
25526;BME280;13424;48.424;11.258;2023-03-12T13:57:53;95226.78;;;13.61;73.07
25526;BME280;13424;48.424;11.258;2023-03-12T14:00:48;95230.28;;;13.92;73.23
25526;BME280;13424;48.424;11.258;2023-03-12T14:04:09;95224.09;;;14.02;71.60
25526;BME280;13424;48.424;11.258;2023-03-12T14:06:21;95233.97;;;14.32;72.88
25526;BME280;13424;48.424;11.258;2023-03-12T14:12:07;95223.53;;;14.25;69.96
25526;BME280;13424;48.424;11.258;2023-03-12T14:15:22;95234.78;;;14.17;70.44
25526;BME280;13424;48.424;11.258;2023-03-12T14:17:59;95230.00;;;13.99;71.27
25526;BME280;13424;48.424;11.258;2023-03-12T14:20:26;95226.78;;;14.02;71.51
25526;BME280;13424;48.424;11.258;2023-03-12T14:23:03;95219.28;;;13.68;71.92
25526;BME280;13424;48.424;11.258;2023-03-12T14:25:52;95219.22;;;14.19;71.65
25526;BME280;13424;48.424;11.258;2023-03-12T14:28:22;95210.69;;;13.82;70.65
25526;BME280;13424;48.424;11.258;2023-03-12T14:33:47;95208.00;;;13.87;70.85
25526;BME280;13424;48.424;11.258;2023-03-12T14:36:17;95209.34;;;13.54;71.83
25526;BME280;13424;48.424;11.258;2023-03-12T14:38:46;95213.00;;;13.07;71.48
25526;BME280;13424;48.424;11.258;2023-03-12T14:41:33;95207.63;;;12.97;71.05
25526;BME280;13424;48.424;11.258;2023-03-12T14:44:24;95213.00;;;13.07;71.33
25526;BME280;13424;48.424;11.258;2023-03-12T14:47:04;95212.63;;;12.73;72.28
25526;BME280;13424;48.424;11.258;2023-03-12T14:49:41;95219.50;;;12.53;73.01
25526;BME280;13424;48.424;11.258;2023-03-12T14:52:13;95220.75;;;12.98;72.19
25526;BME280;13424;48.424;11.258;2023-03-12T14:54:39;95213.47;;;12.83;71.93
25526;BME280;13424;48.424;11.258;2023-03-12T14:57:19;95221.00;;;13.02;71.87
25526;BME280;13424;48.424;11.258;2023-03-12T14:59:56;95216.84;;;12.58;73.00
25526;BME280;13424;48.424;11.258;2023-03-12T15:02:22;95237.94;;;12.55;73.91